Dades meteomassalio
Diari Summary for Diciembre 1, 2017 Units:  English    Metric   Both
« Previous Day
Next Day »
Diari Semanal Mensual Anual Personalitzat
  Maxima: Minima: Mijana:
Temperatura: TemperatureC °F 1.1 °F 4.5 °F
Rosada: DewpointC °F -5.1 °F -2 °F
Humitat: Humidity % 50 % 63 %
Velocitat del vent: WindSpeedKMH mph 3.7 mph 31.4 mph
Racha vent: WindSpeedGustKMH mph - -
Vent:- - WNW
Pressio: PressurehPa in 1014.8 in -
Pluja: 0.5 in    
Historical Graphs
 
 
Tabular Data for Diciembre 1, 2017
Time Temperature Dew Point Pressure Wind Wind Speed Wind Gust Humidity Rainfall Rate (Hourly) solar Conditions
TemperatureC °F DewpointC °F PressurehPa in Calm     Humidity % HourlyPrecipMM in SolarRadiationWatts/m^2 W/m2 Conditions
00:01 3.9 °F -1.1 °F 1020.5 in WNW 11.1 mph 11.1 mph 70 % 0.0 in 0.0 W/m2 CLR
00:06 3.9 °F -1.1 °F 1020.5 in NW 8.0 mph 8.0 mph 70 % 0.0 in 0.0 W/m2 CLR
00:16 2.8 °F -1.9 °F 1020.2 in NW 7.4 mph 7.4 mph 71 % 0.0 in 0.0 W/m2 CLR
00:21 2.2 °F -2.5 °F 1019.9 in NNW 3.7 mph 3.7 mph 71 % 0.0 in 0.0 W/m2 CLR
00:26 1.7 °F -2.8 °F 1019.9 in NW 7.4 mph 7.4 mph 72 % 0.0 in 0.0 W/m2 CLR
00:31 1.1 °F -3.2 °F 1019.9 in NW 13.0 mph 13.0 mph 73 % 0.0 in 0.0 W/m2 CLR
00:36 1.1 °F -3.4 °F 1019.5 in NW 18.5 mph 18.5 mph 72 % 0.0 in 0.0 W/m2 CLR
00:41 2.2 °F -2.7 °F 1019.5 in NW 20.4 mph 20.4 mph 70 % 0.0 in 0.0 W/m2 CLR
00:46 2.2 °F -2.9 °F 1019.2 in NW 22.2 mph 22.2 mph 69 % 0.0 in 0.0 W/m2 CLR
00:51 2.8 °F -2.6 °F 1019.2 in NW 22.2 mph 22.2 mph 68 % 0.0 in 0.0 W/m2 CLR
00:56 3.3 °F -2.4 °F 1019.2 in NW 18.5 mph 18.5 mph 66 % 0.0 in 0.0 W/m2 CLR
01:01 3.9 °F -2.3 °F 1019.2 in NW 18.5 mph 18.5 mph 64 % 0.0 in 0.0 W/m2 CLR
01:11 4.4 °F -2.0 °F 1019.2 in NW 20.4 mph 20.4 mph 63 % 0.0 in 0.0 W/m2 CLR
01:16 5.0 °F -1.7 °F 1018.8 in NW 17.7 mph 17.7 mph 62 % 0.0 in 0.0 W/m2 CLR
01:21 5.0 °F -1.9 °F 1018.8 in NW 18.5 mph 18.5 mph 61 % 0.0 in 0.0 W/m2 CLR
01:26 5.0 °F -1.9 °F 1018.8 in NNW 18.5 mph 18.5 mph 61 % 0.0 in 0.0 W/m2 CLR
01:36 5.6 °F -1.6 °F 1018.8 in NW 22.2 mph 22.2 mph 60 % 0.0 in 0.0 W/m2 CLR
01:41 5.0 °F -2.1 °F 1018.8 in NW 20.4 mph 20.4 mph 60 % 0.0 in 0.0 W/m2 CLR
01:46 5.0 °F -2.1 °F 1018.8 in NW 27.8 mph 27.8 mph 60 % 0.0 in 0.0 W/m2 CLR
01:51 5.0 °F -2.3 °F 1018.8 in NW 27.8 mph 27.8 mph 59 % 0.0 in 0.0 W/m2 CLR
01:56 5.0 °F -2.3 °F 1018.8 in NW 27.8 mph 27.8 mph 59 % 0.0 in 0.0 W/m2 CLR
02:06 5.0 °F -2.3 °F 1018.8 in NW 20.4 mph 20.4 mph 59 % 0.0 in 0.0 W/m2 CLR
02:11 5.0 °F -2.3 °F 1018.8 in WNW 24.1 mph 24.1 mph 59 % 0.0 in 0.0 W/m2 CLR
02:21 5.0 °F -2.1 °F 1018.8 in NNW 25.7 mph 25.7 mph 60 % 0.0 in 0.0 W/m2 CLR
02:26 5.0 °F -2.1 °F 1018.8 in NW 27.8 mph 27.8 mph 60 % 0.0 in 0.0 W/m2 CLR
02:31 5.0 °F -2.1 °F 1018.8 in NW 22.2 mph 22.2 mph 60 % 0.0 in 0.0 W/m2 CLR
02:36 5.0 °F -2.1 °F 1018.8 in NW 22.2 mph 22.2 mph 60 % 0.0 in 0.0 W/m2 CLR
02:41 5.0 °F -2.1 °F 1018.8 in NW 22.2 mph 22.2 mph 60 % 0.0 in 0.0 W/m2 CLR
02:46 5.0 °F -2.1 °F 1018.8 in NW 16.7 mph 16.7 mph 60 % 0.0 in 0.0 W/m2 CLR
02:51 5.0 °F -2.1 °F 1018.8 in NW 16.1 mph 16.1 mph 60 % 0.0 in 0.0 W/m2 CLR
02:56 4.4 °F -2.4 °F 1018.8 in WNW 22.5 mph 22.5 mph 61 % 0.0 in 0.0 W/m2 CLR
03:01 4.4 °F -2.4 °F 1018.8 in NW 18.5 mph 18.5 mph 61 % 0.0 in 0.0 W/m2 CLR
03:06 4.4 °F -2.4 °F 1018.8 in WNW 18.5 mph 18.5 mph 61 % 0.0 in 0.0 W/m2 CLR
03:11 3.9 °F -2.9 °F 1018.8 in WNW 18.5 mph 18.5 mph 61 % 0.0 in 0.0 W/m2 CLR
03:16 4.4 °F -2.7 °F 1018.5 in NW 24.1 mph 24.1 mph 60 % 0.0 in 0.0 W/m2 CLR
03:21 4.4 °F -2.7 °F 1018.5 in NW 22.2 mph 22.2 mph 60 % 0.0 in 0.0 W/m2 CLR
03:31 5.0 °F -2.1 °F 1018.5 in NW 24.1 mph 24.1 mph 60 % 0.0 in 0.0 W/m2 CLR
03:36 5.0 °F -2.1 °F 1018.5 in WNW 22.2 mph 22.2 mph 60 % 0.0 in 0.0 W/m2 CLR
03:41 5.0 °F -2.1 °F 1018.5 in WNW 24.1 mph 24.1 mph 60 % 0.0 in 0.0 W/m2 CLR
03:47 5.0 °F -2.1 °F 1018.5 in WNW 25.9 mph 25.9 mph 60 % 0.0 in 0.0 W/m2 CLR
03:52 5.0 °F -2.1 °F 1018.5 in NW 25.9 mph 25.9 mph 60 % 0.0 in 0.0 W/m2 CLR
03:57 4.4 °F -2.7 °F 1018.2 in WNW 27.8 mph 27.8 mph 60 % 0.0 in 0.0 W/m2 CLR
04:02 5.0 °F -2.1 °F 1018.2 in NW 22.2 mph 22.2 mph 60 % 0.0 in 0.0 W/m2 CLR
04:07 5.0 °F -2.1 °F 1018.2 in WNW 24.1 mph 24.1 mph 60 % 0.0 in 0.0 W/m2 CLR
04:12 5.0 °F -2.1 °F 1018.2 in WNW 22.2 mph 22.2 mph 60 % 0.0 in 0.0 W/m2 CLR
04:19 5.0 °F -2.3 °F 1018.2 in WNW 18.5 mph 18.5 mph 59 % 0.0 in 0.0 W/m2 CLR
04:22 5.0 °F -2.1 °F 1017.8 in NW 16.7 mph 16.7 mph 60 % 0.0 in 0.0 W/m2 CLR
04:24 4.4 °F -2.7 °F 1017.8 in West 18.5 mph 18.5 mph 60 % 0.0 in 0.0 W/m2 CLR
04:25 4.4 °F -2.7 °F 1017.8 in WNW 18.5 mph 18.5 mph 60 % 0.0 in 0.0 W/m2 CLR
04:32 4.4 °F -2.7 °F 1017.8 in WNW 14.8 mph 14.8 mph 60 % 0.0 in 0.0 W/m2 CLR
04:35 4.4 °F -2.7 °F 1017.8 in WNW 16.7 mph 16.7 mph 60 % 0.0 in 0.0 W/m2 CLR
04:40 3.9 °F -3.2 °F 1017.8 in NW 22.2 mph 22.2 mph 60 % 0.0 in 0.0 W/m2 CLR
04:45 3.9 °F -3.2 °F 1017.5 in WNW 25.9 mph 25.9 mph 60 % 0.0 in 0.0 W/m2 CLR
04:50 3.9 °F -3.2 °F 1017.5 in WNW 18.5 mph 18.5 mph 60 % 0.0 in 0.0 W/m2 CLR
04:55 3.9 °F -2.9 °F 1017.5 in WNW 13.0 mph 13.0 mph 61 % 0.0 in 0.0 W/m2 CLR
05:00 3.9 °F -2.7 °F 1017.5 in West 11.1 mph 11.1 mph 62 % 0.0 in 0.0 W/m2 CLR
05:05 3.3 °F -3.1 °F 1017.5 in NW 14.8 mph 14.8 mph 63 % 0.0 in 0.0 W/m2 CLR
05:10 3.3 °F -3.1 °F 1017.2 in WNW 18.5 mph 18.5 mph 63 % 0.0 in 0.0 W/m2 CLR
05:15 3.3 °F -3.5 °F 1017.2 in NW 19.3 mph 19.3 mph 61 % 0.0 in 0.0 W/m2 CLR
05:20 3.9 °F -3.2 °F 1017.2 in NW 20.9 mph 20.9 mph 60 % 0.0 in 0.0 W/m2 CLR
05:25 4.4 °F -2.7 °F 1017.2 in NW 31.5 mph 31.5 mph 60 % 0.0 in 0.0 W/m2 CLR
05:30 4.4 °F -2.9 °F 1017.2 in WNW 22.2 mph 22.2 mph 59 % 0.0 in 0.0 W/m2 CLR
05:35 5.0 °F -2.3 °F 1016.8 in NW 20.4 mph 20.4 mph 59 % 0.0 in 0.0 W/m2 CLR
05:36 5.0 °F -2.3 °F 1017.2 in NW 27.4 mph 27.4 mph 59 % 0.0 in 0.0 W/m2 CLR
05:41 5.0 °F -2.6 °F 1016.8 in NW 31.5 mph 31.5 mph 58 % 0.0 in 0.0 W/m2 CLR
05:46 5.6 °F -2.1 °F 1016.8 in NW 24.1 mph 24.1 mph 58 % 0.0 in 0.0 W/m2 CLR
05:51 5.6 °F -2.3 °F 1016.8 in WNW 30.6 mph 30.6 mph 57 % 0.0 in 0.0 W/m2 CLR
05:56 5.6 °F -2.3 °F 1016.8 in WNW 22.2 mph 22.2 mph 57 % 0.0 in 0.0 W/m2 CLR
06:01 5.6 °F -2.3 °F 1017.2 in WNW 24.1 mph 24.1 mph 57 % 0.0 in 0.0 W/m2 CLR
06:06 5.6 °F -2.3 °F 1016.8 in WNW 24.1 mph 24.1 mph 57 % 0.0 in 0.0 W/m2 CLR
06:11 5.6 °F -2.1 °F 1016.8 in NW 20.4 mph 20.4 mph 58 % 0.0 in 0.0 W/m2 CLR
06:21 5.0 °F -2.6 °F 1016.8 in WNW 18.5 mph 18.5 mph 58 % 0.0 in 0.0 W/m2 CLR
06:26 4.4 °F -3.1 °F 1016.8 in WNW 13.0 mph 13.0 mph 58 % 0.0 in 0.0 W/m2 CLR
06:31 4.4 °F -3.1 °F 1016.8 in WNW 14.8 mph 14.8 mph 58 % 0.0 in 0.0 W/m2 CLR
06:36 4.4 °F -2.9 °F 1016.8 in West 20.4 mph 20.4 mph 59 % 0.0 in 0.0 W/m2 CLR
06:41 4.4 °F -2.9 °F 1016.8 in WNW 18.5 mph 18.5 mph 59 % 0.0 in 0.0 W/m2 CLR
06:46 4.4 °F -2.7 °F 1016.5 in WNW 18.5 mph 18.5 mph 60 % 0.0 in 0.0 W/m2 CLR
06:51 3.9 °F -3.2 °F 1016.5 in WNW 14.5 mph 14.5 mph 60 % 0.0 in 0.0 W/m2 CLR
06:56 3.9 °F -3.2 °F 1016.5 in WNW 14.8 mph 14.8 mph 60 % 0.0 in 0.0 W/m2 CLR
07:01 3.9 °F -3.2 °F 1016.5 in NW 18.5 mph 18.5 mph 60 % 0.0 in 0.0 W/m2 CLR
07:06 4.4 °F -2.9 °F 1016.1 in WNW 24.1 mph 24.1 mph 59 % 0.0 in 0.0 W/m2 CLR
07:11 4.4 °F -2.9 °F 1016.5 in NW 22.2 mph 22.2 mph 59 % 0.0 in 0.0 W/m2 CLR
07:16 5.0 °F -2.3 °F 1016.1 in WNW 22.2 mph 22.2 mph 59 % 0.0 in 0.0 W/m2 CLR
07:21 5.0 °F -2.3 °F 1016.1 in NW 25.9 mph 25.9 mph 59 % 0.0 in 0.0 W/m2 CLR
07:36 5.0 °F -2.1 °F 1015.8 in NW 16.7 mph 16.7 mph 60 % 0.0 in 0.0 W/m2 CLR
07:41 5.0 °F -2.1 °F 1015.8 in NW 18.5 mph 18.5 mph 60 % 0.0 in 0.0 W/m2 CLR
07:46 5.0 °F -2.1 °F 1015.8 in WNW 13.0 mph 13.0 mph 60 % 0.0 in 0.0 W/m2 CLR
07:51 4.4 °F -2.7 °F 1015.8 in NW 16.7 mph 16.7 mph 60 % 0.0 in 0.0 W/m2 CLR
07:56 4.4 °F -2.4 °F 1015.8 in North 16.7 mph 16.7 mph 61 % 0.0 in 0.0 W/m2 CLR
08:01 4.4 °F -2.4 °F 1015.8 in WNW 20.9 mph 20.9 mph 61 % 0.0 in 0.0 W/m2 OVC
08:06 4.4 °F -2.7 °F 1015.8 in NW 18.5 mph 18.5 mph 60 % 0.0 in 7.0 W/m2 OVC
08:11 5.0 °F -2.1 °F 1015.8 in NW 20.9 mph 20.9 mph 60 % 0.0 in 9.0 W/m2 BKN
08:16 5.6 °F -1.6 °F 1015.8 in NW 24.1 mph 24.1 mph 60 % 0.0 in 12.0 W/m2 BKN
08:21 5.6 °F -1.8 °F 1015.5 in WNW 20.4 mph 20.4 mph 59 % 0.0 in 12.0 W/m2 BKN
08:26 5.6 °F -1.6 °F 1015.5 in WNW 20.9 mph 20.9 mph 60 % 0.0 in 12.0 W/m2 BKN
08:31 5.6 °F -1.6 °F 1015.5 in NW 20.4 mph 20.4 mph 60 % 0.0 in 14.0 W/m2 BKN
08:36 5.6 °F -1.6 °F 1015.5 in NW 22.5 mph 22.5 mph 60 % 0.0 in 21.0 W/m2 BKN
08:41 5.6 °F -1.6 °F 1015.5 in NW 22.5 mph 22.5 mph 60 % 0.0 in 30.0 W/m2 BKN
08:46 5.6 °F -1.6 °F 1015.5 in WNW 24.1 mph 24.1 mph 60 % 0.0 in 35.0 W/m2 BKN
08:51 5.6 °F -1.6 °F 1015.5 in NW 22.2 mph 22.2 mph 60 % 0.0 in 51.0 W/m2 SCT
08:56 5.6 °F -1.8 °F 1015.1 in WNW 29.6 mph 29.6 mph 59 % 0.0 in 65.0 W/m2 SCT
09:01 5.6 °F -1.8 °F 1015.1 in NW 33.3 mph 33.3 mph 59 % 0.0 in 70.0 W/m2 FEW
09:06 6.1 °F -1.6 °F 1015.1 in WNW 31.5 mph 31.5 mph 58 % 0.0 in 104.0 W/m2 FEW
09:11 6.1 °F -1.6 °F 1015.1 in WNW 22.2 mph 22.2 mph 58 % 0.0 in 134.0 W/m2 FEW
09:16 6.7 °F -1.0 °F 1015.1 in NW 27.8 mph 27.8 mph 58 % 0.0 in 70.0 W/m2 CLR
09:21 6.7 °F -1.3 °F 1014.8 in WNW 30.6 mph 30.6 mph 57 % 0.0 in 54.0 W/m2 FEW
09:23 6.7 °F -1.3 °F 1014.8 in NNW 29.6 mph 29.6 mph 57 % 0.0 in 54.0 W/m2 FEW
09:33 6.7 °F -1.0 °F 1014.8 in NW 40.7 mph 40.7 mph 58 % 0.0 in 47.0 W/m2 BKN
09:38 6.7 °F -1.3 °F 1014.8 in WNW 33.8 mph 33.8 mph 57 % 0.0 in 62.0 W/m2 SCT
09:43 6.7 °F -1.3 °F 1014.8 in NNW 30.6 mph 30.6 mph 57 % 0.0 in 158.0 W/m2 FEW
09:48 7.2 °F -1.0 °F 1014.8 in NW 33.3 mph 33.3 mph 56 % 0.0 in 98.0 W/m2 CLR
09:53 7.2 °F -1.2 °F 1014.8 in NW 29.6 mph 29.6 mph 55 % 0.0 in 63.0 W/m2 CLR
09:58 7.2 °F -1.2 °F 1014.8 in WNW 33.3 mph 33.3 mph 55 % 0.0 in 91.0 W/m2 FEW
10:03 7.8 °F -0.7 °F 1014.8 in NW 35.2 mph 35.2 mph 55 % 0.0 in 272.0 W/m2 CLR
10:13 8.3 °F -0.4 °F 1015.1 in WNW 31.5 mph 31.5 mph 54 % 0.0 in 183.0 W/m2 CLR
10:18 8.9 °F -0.2 °F 1015.1 in WNW 31.5 mph 31.5 mph 53 % 0.0 in 258.0 W/m2 CLR
10:23 8.9 °F 0.1 °F 1015.5 in NNW 33.3 mph 33.3 mph 54 % 0.0 in 462.0 W/m2 CLR
10:28 8.9 °F -0.2 °F 1015.5 in NNW 31.5 mph 31.5 mph 53 % 0.0 in 160.0 W/m2 CLR
10:33 8.9 °F 0.1 °F 1015.5 in North 32.2 mph 32.2 mph 54 % 0.0 in 111.0 W/m2 CLR
10:38 8.3 °F -0.2 °F 1015.5 in NW 27.8 mph 27.8 mph 55 % 0.0 in 93.0 W/m2 CLR
10:43 8.3 °F 0.1 °F 1015.5 in NNW 25.9 mph 25.9 mph 56 % 0.0 in 95.0 W/m2 CLR
10:58 8.3 °F -0.2 °F 1015.5 in NW 31.5 mph 31.5 mph 55 % 0.0 in 132.0 W/m2 CLR
11:03 8.3 °F 0.1 °F 1015.5 in North 33.3 mph 33.3 mph 56 % 0.0 in 125.0 W/m2 CLR
11:08 8.3 °F 0.3 °F 1015.8 in NNW 40.7 mph 40.7 mph 57 % 0.0 in 84.0 W/m2 CLR
11:13 7.8 °F 0.7 °F 1015.8 in NNW 55.5 mph 55.5 mph 61 % 0.0 in 107.0 W/m2 CLR
11:18 7.2 °F 0.8 °F 1015.8 in North 46.3 mph 46.3 mph 64 % 0.0 in 81.0 W/m2 CLR
11:20 7.2 °F 1.1 °F 1015.8 in North 46.3 mph 46.3 mph 65 % 0.0 in 74.0 W/m2 CLR
11:25 6.7 °F 1.6 °F 1015.8 in North 40.2 mph 40.2 mph 70 % 0.0 in 63.0 W/m2 FEW
11:30 6.1 °F 2.0 °F 1015.8 in North 53.7 mph 53.7 mph 75 % 0.0 in 88.0 W/m2 FEW
11:35 5.6 °F 2.2 °F 1016.1 in North 35.2 mph 35.2 mph 79 % 0.0 in 81.0 W/m2 FEW
11:40 5.6 °F 2.6 °F 1016.1 in North 35.2 mph 35.2 mph 81 % 0.3 in 111.0 W/m2 RA
11:45 5.0 °F 2.3 °F 1015.8 in NW 37.0 mph 37.0 mph 83 % 0.3 in 91.0 W/m2 CLR
11:50 5.0 °F 2.5 °F 1015.8 in NNW 55.5 mph 55.5 mph 84 % 0.3 in 156.0 W/m2 CLR
11:55 5.0 °F 2.7 °F 1015.8 in North 38.6 mph 38.6 mph 85 % 0.3 in 241.0 W/m2 CLR
12:00 5.0 °F 2.8 °F 1015.5 in NNW 38.9 mph 38.9 mph 86 % 0.3 in 311.0 W/m2 CLR
12:05 5.6 °F 3.4 °F 1015.5 in NW 38.9 mph 38.9 mph 86 % 0.3 in 250.0 W/m2 CLR
12:10 5.6 °F 3.2 °F 1015.8 in NW 31.5 mph 31.5 mph 85 % 0.3 in 84.0 W/m2 CLR
12:15 5.0 °F 2.5 °F 1015.8 in NNW 37.0 mph 37.0 mph 84 % 0.3 in 49.0 W/m2 FEW
12:20 5.0 °F 2.5 °F 1016.1 in North 46.3 mph 46.3 mph 84 % 0.3 in 67.0 W/m2 SCT
12:25 5.0 °F 2.3 °F 1016.1 in NNW 50.0 mph 50.0 mph 83 % 0.3 in 125.0 W/m2 FEW
12:30 5.0 °F 2.3 °F 1016.1 in North 41.8 mph 41.8 mph 83 % 0.3 in 97.0 W/m2 CLR
12:35 4.4 °F 1.6 °F 1016.1 in NNW 42.6 mph 42.6 mph 82 % 0.3 in 98.0 W/m2 CLR
12:40 4.4 °F 1.4 °F 1016.5 in NNW 46.3 mph 46.3 mph 81 % 0.0 in 128.0 W/m2 CLR
12:45 5.0 °F 2.0 °F 1016.5 in NNW 35.4 mph 35.4 mph 81 % 0.0 in 76.0 W/m2 CLR
12:50 5.0 °F 1.8 °F 1016.5 in NNW 38.9 mph 38.9 mph 80 % 0.0 in 120.0 W/m2 CLR
12:55 5.0 °F 2.0 °F 1016.1 in NNW 37.0 mph 37.0 mph 81 % 0.0 in 174.0 W/m2 CLR
13:01 5.0 °F 1.8 °F 1016.1 in North 31.5 mph 31.5 mph 80 % 0.0 in 229.0 W/m2 CLR
13:06 5.6 °F 2.0 °F 1016.1 in NNW 37.0 mph 37.0 mph 78 % 0.0 in 278.0 W/m2 CLR
13:16 5.6 °F 1.3 °F 1015.8 in NW 29.6 mph 29.6 mph 74 % 0.0 in 229.0 W/m2 CLR
13:21 6.1 °F 1.6 °F 1015.8 in NNW 27.8 mph 27.8 mph 73 % 0.0 in 299.0 W/m2 CLR
13:26 6.1 °F 1.4 °F 1015.8 in NW 27.8 mph 27.8 mph 72 % 0.0 in 364.0 W/m2 CLR
13:31 6.1 °F 0.8 °F 1015.8 in North 49.9 mph 49.9 mph 69 % 0.0 in 213.0 W/m2 CLR
13:36 5.6 °F 0.3 °F 1015.8 in NNW 31.5 mph 31.5 mph 69 % 0.0 in 204.0 W/m2 CLR
13:41 5.6 °F 0.1 °F 1015.8 in NNW 35.2 mph 35.2 mph 68 % 0.0 in 244.0 W/m2 CLR
13:46 5.6 °F -0.1 °F 1015.8 in NW 46.3 mph 46.3 mph 67 % 0.0 in 197.0 W/m2 CLR
13:51 5.6 °F 0.1 °F 1015.8 in NW 38.9 mph 38.9 mph 68 % 0.0 in 181.0 W/m2 CLR
13:56 5.0 °F -0.2 °F 1015.8 in NW 27.8 mph 27.8 mph 69 % 0.0 in 174.0 W/m2 CLR
14:01 5.0 °F -0.2 °F 1016.1 in North 44.4 mph 44.4 mph 69 % 0.0 in 209.0 W/m2 CLR
14:06 5.0 °F 0.0 °F 1016.1 in North 35.2 mph 35.2 mph 70 % 0.0 in 151.0 W/m2 CLR
14:11 5.0 °F -0.2 °F 1016.1 in North 35.2 mph 35.2 mph 69 % 0.0 in 162.0 W/m2 CLR
14:16 5.0 °F -0.4 °F 1016.1 in North 53.1 mph 53.1 mph 68 % 0.0 in 156.0 W/m2 CLR
14:21 5.0 °F -0.4 °F 1016.1 in NW 50.0 mph 50.0 mph 68 % 0.0 in 163.0 W/m2 CLR
14:26 5.0 °F -0.6 °F 1015.8 in NW 40.7 mph 40.7 mph 67 % 0.0 in 160.0 W/m2 CLR
14:31 5.0 °F -0.6 °F 1015.8 in NNW 42.6 mph 42.6 mph 67 % 0.0 in 98.0 W/m2 CLR
14:36 4.4 °F -1.6 °F 1016.1 in NNW 44.4 mph 44.4 mph 65 % 0.0 in 202.0 W/m2 CLR
14:41 5.0 °F -1.3 °F 1015.8 in NW 40.7 mph 40.7 mph 64 % 0.0 in 369.0 W/m2 CLR
14:46 5.6 °F -1.2 °F 1016.1 in NNW 40.7 mph 40.7 mph 62 % 0.0 in 371.0 W/m2 CLR
14:51 5.6 °F -1.4 °F 1016.1 in NW 33.3 mph 33.3 mph 61 % 0.0 in 387.0 W/m2 CLR
15:01 6.1 °F -1.6 °F 1016.1 in NNW 33.3 mph 33.3 mph 58 % 0.0 in 359.0 W/m2 CLR
15:06 6.1 °F -2.0 °F 1016.1 in NNW 41.8 mph 41.8 mph 56 % 0.0 in 318.0 W/m2 CLR
15:16 6.1 °F -2.5 °F 1015.8 in North 45.1 mph 45.1 mph 54 % 0.0 in 295.0 W/m2 CLR
15:21 6.1 °F -2.8 °F 1016.1 in NNW 55.5 mph 55.5 mph 53 % 0.0 in 281.0 W/m2 CLR
15:31 6.1 °F -3.3 °F 1016.5 in NNW 53.7 mph 53.7 mph 51 % 0.3 in 258.0 W/m2 RA
15:36 6.1 °F -3.0 °F 1016.1 in North 55.5 mph 55.5 mph 52 % 0.3 in 243.0 W/m2 CLR
15:41 6.1 °F -2.8 °F 1016.1 in NNW 42.6 mph 42.6 mph 53 % 0.3 in 234.0 W/m2 CLR
15:46 6.1 °F -2.8 °F 1016.5 in North 50.0 mph 50.0 mph 53 % 0.3 in 218.0 W/m2 CLR
16:01 5.6 °F -3.1 °F 1016.5 in NNW 55.5 mph 55.5 mph 54 % 0.3 in 178.0 W/m2 CLR
16:06 5.6 °F -3.1 °F 1016.5 in NW 50.0 mph 50.0 mph 54 % 0.3 in 163.0 W/m2 CLR
16:11 5.6 °F -3.1 °F 1016.5 in NNW 51.8 mph 51.8 mph 54 % 0.3 in 148.0 W/m2 CLR
16:16 5.6 °F -3.1 °F 1016.5 in North 42.6 mph 42.6 mph 54 % 0.3 in 135.0 W/m2 CLR
16:21 5.6 °F -3.1 °F 1016.8 in NW 35.2 mph 35.2 mph 54 % 0.3 in 121.0 W/m2 CLR
16:31 5.0 °F -3.8 °F 1016.8 in North 42.6 mph 42.6 mph 53 % 0.0 in 90.0 W/m2 CLR
16:36 5.0 °F -3.8 °F 1016.8 in NNW 40.2 mph 40.2 mph 53 % 0.0 in 77.0 W/m2 FEW
16:41 5.0 °F -3.8 °F 1016.8 in NNW 42.6 mph 42.6 mph 53 % 0.0 in 62.0 W/m2 BKN
16:51 5.0 °F -4.3 °F 1017.2 in North 42.6 mph 42.6 mph 51 % 0.0 in 46.0 W/m2 SCT
16:56 5.0 °F -4.6 °F 1017.2 in North 48.3 mph 48.3 mph 50 % 0.0 in 35.0 W/m2 BKN
17:01 5.0 °F -4.6 °F 1017.2 in North 49.9 mph 49.9 mph 50 % 0.0 in 25.0 W/m2 BKN
17:06 4.4 °F -5.1 °F 1017.2 in North 38.9 mph 38.9 mph 50 % 0.0 in 16.0 W/m2 BKN
17:11 4.4 °F -4.8 °F 1017.2 in North 40.7 mph 40.7 mph 51 % 0.0 in 12.0 W/m2 BKN
17:16 4.4 °F -4.6 °F 1017.5 in NNW 33.8 mph 33.8 mph 52 % 0.0 in 12.0 W/m2 BKN
17:21 4.4 °F -4.3 °F 1017.2 in NNW 45.1 mph 45.1 mph 53 % 0.0 in 9.0 W/m2 BKN
17:31 4.4 °F -4.1 °F 1017.5 in North 38.9 mph 38.9 mph 54 % 0.0 in 5.0 W/m2 OVC
17:36 3.9 °F -4.6 °F 1017.5 in NNW 46.3 mph 46.3 mph 54 % 0.0 in 0.0 W/m2 OVC
17:41 3.9 °F -4.6 °F 1017.5 in North 40.7 mph 40.7 mph 54 % 0.0 in 0.0 W/m2 CLR
17:46 3.9 °F -4.6 °F 1017.5 in NNW 38.6 mph 38.6 mph 54 % 0.0 in 0.0 W/m2 CLR
17:51 3.9 °F -4.3 °F 1017.8 in North 40.7 mph 40.7 mph 55 % 0.0 in 0.0 W/m2 CLR
17:56 3.9 °F -4.3 °F 1017.8 in North 40.7 mph 40.7 mph 55 % 0.0 in 0.0 W/m2 CLR
18:01 3.9 °F -4.1 °F 1017.8 in North 48.1 mph 48.1 mph 56 % 0.0 in 0.0 W/m2 CLR
18:06 3.3 °F -4.6 °F 1017.8 in North 48.1 mph 48.1 mph 56 % 0.0 in 0.0 W/m2
18:11 3.3 °F -4.4 °F 1018.2 in North 53.7 mph 53.7 mph 57 % 0.0 in 0.0 W/m2 CLR
18:17 3.3 °F -4.4 °F 1018.2 in North 44.4 mph 44.4 mph 57 % 0.0 in 0.0 W/m2 CLR
18:27 3.3 °F -4.2 °F 1018.5 in NNW 46.3 mph 46.3 mph 58 % 0.0 in 0.0 W/m2 CLR
18:32 3.3 °F -4.2 °F 1018.8 in North 42.6 mph 42.6 mph 58 % 0.0 in 0.0 W/m2 CLR
18:37 3.3 °F -3.9 °F 1018.8 in NNW 51.8 mph 51.8 mph 59 % 0.0 in 0.0 W/m2 CLR
18:42 3.3 °F -3.9 °F 1019.2 in NNW 42.6 mph 42.6 mph 59 % 0.0 in 0.0 W/m2 CLR
18:47 2.8 °F -4.2 °F 1019.2 in North 55.5 mph 55.5 mph 60 % 0.0 in 0.0 W/m2 CLR
18:52 2.8 °F -4.2 °F 1019.2 in North 42.6 mph 42.6 mph 60 % 0.0 in 0.0 W/m2 CLR
18:57 2.8 °F -4.0 °F 1019.5 in NNW 42.6 mph 42.6 mph 61 % 0.0 in 0.0 W/m2 CLR
19:02 2.8 °F -3.8 °F 1019.5 in NNW 35.4 mph 35.4 mph 62 % 0.0 in 0.0 W/m2 CLR
19:07 2.8 °F -3.8 °F 1019.5 in NNW 40.7 mph 40.7 mph 62 % 0.0 in 0.0 W/m2 CLR
19:12 2.8 °F -3.8 °F 1019.5 in NNW 44.4 mph 44.4 mph 62 % 0.0 in 0.0 W/m2 CLR
19:17 2.8 °F -3.6 °F 1019.9 in North 42.6 mph 42.6 mph 63 % 0.0 in 0.0 W/m2 CLR
19:22 2.8 °F -3.6 °F 1019.9 in NNW 40.7 mph 40.7 mph 63 % 0.0 in 0.0 W/m2 CLR
19:27 2.2 °F -4.1 °F 1019.9 in NNW 27.8 mph 27.8 mph 63 % 0.0 in 0.0 W/m2 CLR
19:32 2.2 °F -3.9 °F 1020.2 in North 29.0 mph 29.0 mph 64 % 0.0 in 0.0 W/m2 CLR
19:37 2.2 °F -3.9 °F 1020.2 in North 31.5 mph 31.5 mph 64 % 0.0 in 0.0 W/m2 CLR
19:48 2.2 °F -3.7 °F 1020.5 in NNW 37.0 mph 37.0 mph 65 % 0.0 in 0.0 W/m2 CLR
19:53 2.2 °F -3.7 °F 1020.5 in NNE 33.3 mph 33.3 mph 65 % 0.0 in 0.0 W/m2 CLR
19:58 2.2 °F -3.5 °F 1020.5 in NNW 33.3 mph 33.3 mph 66 % 0.0 in 0.0 W/m2 CLR
20:13 2.2 °F -2.9 °F 1020.9 in NNW 33.3 mph 33.3 mph 69 % 0.0 in 0.0 W/m2 CLR
20:18 2.2 °F -2.9 °F 1020.9 in North 31.5 mph 31.5 mph 69 % 0.0 in 0.0 W/m2 CLR
20:23 2.2 °F -2.7 °F 1020.9 in NNW 40.7 mph 40.7 mph 70 % 0.0 in 0.0 W/m2 CLR
20:28 1.7 °F -3.2 °F 1020.9 in NNW 32.2 mph 32.2 mph 70 % 0.0 in 0.0 W/m2 CLR
20:38 1.7 °F -3.1 °F 1021.2 in North 38.9 mph 38.9 mph 71 % 0.0 in 0.0 W/m2 CLR
20:43 1.7 °F -3.1 °F 1020.9 in North 38.9 mph 38.9 mph 71 % 0.0 in 0.0 W/m2 CLR
20:48 1.7 °F -3.1 °F 1021.2 in NNW 44.4 mph 44.4 mph 71 % 0.0 in 0.0 W/m2 CLR
20:59 1.7 °F -3.2 °F 1020.9 in NNW 37.0 mph 37.0 mph 70 % 0.0 in 0.0 W/m2 CLR
21:04 2.2 °F -2.7 °F 1021.2 in NNW 42.6 mph 42.6 mph 70 % 0.0 in 0.0 W/m2 CLR
21:09 2.2 °F -2.7 °F 1021.2 in North 35.2 mph 35.2 mph 70 % 0.0 in 0.0 W/m2 CLR
21:19 2.2 °F -2.9 °F 1021.2 in North 35.2 mph 35.2 mph 69 % 0.0 in 0.0 W/m2 CLR
21:24 2.2 °F -2.9 °F 1021.2 in North 42.6 mph 42.6 mph 69 % 0.0 in 0.0 W/m2 CLR
21:29 1.7 °F -3.4 °F 1021.2 in North 42.6 mph 42.6 mph 69 % 0.0 in 0.0 W/m2 CLR
21:34 2.2 °F -2.9 °F 1021.6 in North 35.4 mph 35.4 mph 69 % 0.0 in 0.0 W/m2 CLR
21:39 2.2 °F -2.7 °F 1021.6 in North 38.9 mph 38.9 mph 70 % 0.0 in 0.0 W/m2 CLR
21:49 2.2 °F -2.7 °F 1021.6 in North 31.5 mph 31.5 mph 70 % 0.0 in 0.0 W/m2 CLR
21:54 2.2 °F -2.7 °F 1021.6 in North 35.2 mph 35.2 mph 70 % 0.0 in 0.0 W/m2 CLR
21:59 1.7 °F -3.2 °F 1021.6 in NNW 27.8 mph 27.8 mph 70 % 0.0 in 0.0 W/m2 CLR
22:04 1.7 °F -3.2 °F 1021.6 in NNW 27.4 mph 27.4 mph 70 % 0.0 in 0.0 W/m2 CLR
22:09 1.7 °F -3.2 °F 1021.6 in NNW 38.6 mph 38.6 mph 70 % 0.0 in 0.0 W/m2 CLR
22:14 1.7 °F -3.2 °F 1021.6 in NNW 38.9 mph 38.9 mph 70 % 0.0 in 0.0 W/m2 CLR
22:19 1.7 °F -3.2 °F 1021.6 in NNW 42.6 mph 42.6 mph 70 % 0.0 in 0.0 W/m2 CLR
22:24 1.7 °F -3.2 °F 1021.6 in NNW 35.4 mph 35.4 mph 70 % 0.0 in 0.0 W/m2 CLR
22:29 2.2 °F -2.5 °F 1021.6 in NNW 38.9 mph 38.9 mph 71 % 0.0 in 0.0 W/m2 CLR
22:34 1.7 °F -3.1 °F 1021.6 in NNW 29.6 mph 29.6 mph 71 % 0.0 in 0.0 W/m2 CLR
22:39 1.7 °F -3.1 °F 1021.6 in NNW 29.6 mph 29.6 mph 71 % 0.0 in 0.0 W/m2 CLR
22:44 1.7 °F -3.1 °F 1021.6 in NNW 31.5 mph 31.5 mph 71 % 0.0 in 0.0 W/m2 CLR
22:49 1.7 °F -3.1 °F 1021.6 in NW 33.3 mph 33.3 mph 71 % 0.0 in 0.0 W/m2 CLR
22:54 1.7 °F -3.1 °F 1021.6 in NW 27.8 mph 27.8 mph 71 % 0.0 in 0.0 W/m2 CLR
23:01 1.7 °F -2.8 °F 1021.6 in NNE 29.6 mph 29.6 mph 72 % 0.0 in 0.0 W/m2 CLR
23:06 1.7 °F -2.8 °F 1021.6 in North 37.0 mph 37.0 mph 72 % 0.0 in 0.0 W/m2 CLR
23:11 1.7 °F -2.8 °F 1021.6 in NNW 31.5 mph 31.5 mph 72 % 0.0 in 0.0 W/m2 CLR
23:16 1.7 °F -2.8 °F 1021.6 in NNW 31.5 mph 31.5 mph 72 % 0.0 in 0.0 W/m2 CLR
23:26 1.7 °F -2.8 °F 1021.6 in NNW 29.6 mph 29.6 mph 72 % 0.0 in 0.0 W/m2 CLR
23:32 1.7 °F -2.8 °F 1021.6 in NW 40.2 mph 40.2 mph 72 % 0.0 in 0.0 W/m2 CLR
23:42 1.7 °F -2.8 °F 1021.6 in NNW 31.5 mph 31.5 mph 72 % 0.0 in 0.0 W/m2 CLR
23:47 1.7 °F -2.8 °F 1021.6 in NNW 38.9 mph 38.9 mph 72 % 0.0 in 0.0 W/m2 CLR
Lo Temps de Massalio
Compliments of Weather Underground - 1 mb